Aloha, Oregon
Current Conditions -  °F | °C
As of 7:26 AM on Friday 24 Oct 2014 (Local Time) from KHIO Reporting Station
Light Fog Light Fog  
Wind Chill:   Ceiling: Unl
Heat Index:   Visibility: 1.5mi
Dew Point:   Wind: 0mph
Humidity: 100%   Direction: NA
Pressure: 30.01"   Gusts: NA
Location:  45.49°N, 122.86°W
Report Text: KHIO 241426Z 00000KT 1 1/2SM BCFG BR FEW001 FEW009 08/08 A3001 RMK AO2 T00830083
Loading
Personal Weather Stations






























Interactive Weather Map New forecast layout! Learn more

10-Day Weather Forecast

Advertisements
Track Severe Weather on mobile